Time;durP1;ratioP1;P1;durP2;ratioP2;P2;SDS_P1;SDS_P2;PMS_P1;PMS_P2;Temp;Humidity;BMP_temperature;BMP_pressure;BME280_temperature;BME280_humidity;BME280_pressure;Samples;Min_cycle;Max_cycle;Signal;HPM_P1;HPM_P2
2022/05/12 00:00:50;;;;;;;5.25;1.20;;;13.00;99.90;;;;;;5015385;28;20393;-72
2022/05/12 00:03:19;;;;;;;4.55;0.95;;;13.00;99.90;;;;;;5033377;28;20049;-72
2022/05/12 00:05:45;;;;;;;8.02;1.38;;;13.00;99.90;;;;;;5015648;28;20472;-72
2022/05/12 00:08:12;;;;;;;6.80;1.38;;;13.10;99.90;;;;;;5033331;28;20432;-72
2022/05/12 00:10:39;;;;;;;6.32;1.35;;;13.20;99.90;;;;;;5033267;28;20046;-72
2022/05/12 00:13:06;;;;;;;9.50;1.17;;;13.10;99.90;;;;;;5033244;28;20056;-72
2022/05/12 00:15:34;;;;;;;5.22;1.00;;;13.10;99.90;;;;;;5033270;28;20059;-72
2022/05/12 00:18:04;;;;;;;6.20;0.80;;;13.00;99.90;;;;;;5015898;28;20569;-72
2022/05/12 00:20:31;;;;;;;5.10;1.00;;;12.80;99.90;;;;;;5015755;28;20060;-72
2022/05/12 00:23:22;;;;;;;7.43;1.00;;;12.80;99.90;;;;;;5033356;28;20049;-72
2022/05/12 00:25:49;;;;;;;5.50;0.80;;;12.70;99.90;;;;;;5015379;28;20060;-72
2022/05/12 00:28:17;;;;;;;6.65;1.02;;;12.70;99.90;;;;;;5015357;28;20053;-72
2022/05/12 00:30:44;;;;;;;5.60;1.00;;;12.70;99.90;;;;;;5036307;28;20064;-71
2022/05/12 00:33:11;;;;;;;8.82;1.20;;;12.60;99.90;;;;;;5036882;28;20053;-72
2022/05/12 00:35:37;;;;;;;4.07;1.00;;;12.60;99.90;;;;;;5036860;28;20504;-72
2022/05/12 00:38:03;;;;;;;5.15;1.00;;;12.70;99.90;;;;;;5036536;28;20045;-72
2022/05/12 00:40:29;;;;;;;3.38;0.80;;;12.50;99.90;;;;;;5036630;28;20075;-72
2022/05/12 00:43:07;;;;;;;7.68;0.80;;;12.60;99.90;;;;;;5036576;28;20045;-72
2022/05/12 00:45:36;;;;;;;3.70;1.00;;;12.60;99.90;;;;;;5019234;28;20179;-72
2022/05/12 00:48:04;;;;;;;6.38;0.75;;;12.60;99.90;;;;;;5036447;28;20042;-71
2022/05/12 00:50:36;;;;;;;3.95;0.77;;;12.70;99.90;;;;;;5036380;28;20088;-71
2022/05/12 00:53:06;;;;;;;4.30;0.70;;;12.80;99.90;;;;;;5036455;28;20132;-71
2022/05/12 00:55:35;;;;;;;3.78;0.98;;;12.60;99.90;;;;;;5035963;28;20057;-71
2022/05/12 00:58:04;;;;;;;4.40;1.05;;;12.60;99.90;;;;;;5035106;28;20041;-71
2022/05/12 01:00:30;;;;;;;4.45;0.63;;;12.60;99.90;;;;;;5018506;28;20053;-71
2022/05/12 01:03:00;;;;;;;2.92;0.70;;;12.50;99.90;;;;;;5036179;28;20091;-71
2022/05/12 01:05:27;;;;;;;2.58;0.50;;;12.60;99.90;;;;;;5018650;28;20060;-71
2022/05/12 01:07:57;;;;;;;4.28;0.75;;;12.60;99.90;;;;;;5036128;28;20050;-71
2022/05/12 01:10:24;;;;;;;3.03;0.65;;;12.50;99.90;;;;;;5018211;28;20184;-72
2022/05/12 01:12:51;;;;;;;2.85;0.98;;;12.40;99.90;;;;;;5002237;28;20139;-71
2022/05/12 01:15:19;;;;;;;4.20;0.98;;;12.30;99.90;;;;;;5035974;28;20046;-71
2022/05/12 01:17:46;;;;;;;3.38;0.75;;;12.30;99.90;;;;;;5035854;28;20041;-71
2022/05/12 01:20:13;;;;;;;6.30;0.95;;;12.40;99.90;;;;;;5035849;28;20053;-71
2022/05/12 01:22:53;;;;;;;3.92;0.70;;;12.40;99.90;;;;;;5035823;28;20085;-71
2022/05/12 01:25:23;;;;;;;3.25;0.52;;;12.30;99.90;;;;;;5035467;28;20046;-72
2022/05/12 01:27:48;;;;;;;2.58;0.70;;;12.20;99.90;;;;;;5018192;28;20041;-71
2022/05/12 01:30:18;;;;;;;4.53;0.70;;;12.30;99.90;;;;;;5035432;28;20076;-72
2022/05/12 01:32:46;;;;;;;6.18;1.05;;;12.20;99.90;;;;;;5034604;28;20072;-71
2022/05/12 01:35:16;;;;;;;4.47;0.60;;;12.40;99.90;;;;;;5036232;28;20373;-71
2022/05/12 01:37:44;;;;;;;1.48;0.60;;;12.60;99.90;;;;;;5017936;28;20076;-71
2022/05/12 01:40:12;;;;;;;6.57;0.80;;;12.50;99.90;;;;;;5035481;28;20053;-71
2022/05/12 01:42:38;;;;;;;5.18;0.80;;;12.50;99.90;;;;;;5017499;28;20438;-71
2022/05/12 01:45:06;;;;;;;5.95;0.90;;;12.50;99.90;;;;;;5035441;28;20049;-71
2022/05/12 01:47:33;;;;;;;2.75;0.95;;;12.40;99.90;;;;;;5017880;28;20049;-71
2022/05/12 01:49:58;;;;;;;2.88;0.75;;;12.40;99.90;;;;;;5017614;28;20139;-71
2022/05/12 01:52:24;;;;;;;4.03;0.80;;;12.10;99.90;;;;;;5035134;28;20084;-71
2022/05/12 01:54:50;;;;;;;6.40;1.23;;;12.10;99.90;;;;;;5017561;28;20056;-71
2022/05/12 01:57:16;;;;;;;2.83;1.05;;;12.20;99.90;;;;;;5034734;28;20455;-71
2022/05/12 01:59:42;;;;;;;3.65;1.10;;;12.20;99.90;;;;;;5017606;28;20526;-71
2022/05/12 02:02:07;;;;;;;4.38;1.10;;;12.10;99.90;;;;;;5035069;28;20049;-71
2022/05/12 02:04:33;;;;;;;4.72;1.33;;;12.20;99.90;;;;;;5017731;28;20052;-71
2022/05/12 02:06:59;;;;;;;2.83;1.27;;;12.00;99.90;;;;;;5017403;28;20049;-71
2022/05/12 02:09:25;;;;;;;6.57;1.42;;;12.10;99.90;;;;;;5035114;28;20049;-71
2022/05/12 02:11:50;;;;;;;7.40;1.98;;;12.10;99.90;;;;;;5017415;28;20057;-71
2022/05/12 02:14:16;;;;;;;4.00;1.45;;;11.90;99.90;;;;;;5017422;28;20171;-71
2022/05/12 02:16:42;;;;;;;8.00;1.70;;;11.70;99.90;;;;;;5034750;28;20072;-71
2022/05/12 02:19:08;;;;;;;5.65;1.45;;;11.70;99.90;;;;;;5017050;28;20116;-71
2022/05/12 02:21:35;;;;;;;3.08;1.40;;;11.80;99.90;;;;;;5034745;28;20056;-71
2022/05/12 02:24:01;;;;;;;11.25;1.90;;;11.90;99.90;;;;;;5034646;28;20049;-71
2022/05/12 02:26:28;;;;;;;2.95;1.40;;;12.10;99.90;;;;;;5034298;28;20041;-71
2022/05/12 02:28:54;;;;;;;6.07;1.50;;;12.10;99.90;;;;;;5034341;28;20049;-71
2022/05/12 02:31:20;;;;;;;7.32;1.90;;;12.00;99.90;;;;;;5033955;28;20522;-72
2022/05/12 02:33:46;;;;;;;4.35;1.50;;;11.90;99.90;;;;;;5033302;28;20085;-72
2022/05/12 02:36:11;;;;;;;5.78;1.52;;;11.90;99.90;;;;;;5017096;28;20096;-72
2022/05/12 02:38:37;;;;;;;5.35;1.60;;;12.10;99.90;;;;;;5034412;28;20037;-72
2022/05/12 02:41:03;;;;;;;3.22;1.27;;;12.10;99.90;;;;;;5034591;28;20377;-72
2022/05/12 02:43:31;;;;;;;4.40;1.40;;;12.20;99.90;;;;;;5034351;28;20151;-71
2022/05/12 02:46:00;;;;;;;2.58;1.25;;;12.20;99.90;;;;;;5016823;28;20057;-72
2022/05/12 02:48:28;;;;;;;2.80;1.30;;;12.20;99.90;;;;;;5034231;28;20033;-72
2022/05/12 02:50:54;;;;;;;6.25;1.80;;;12.20;99.90;;;;;;5016425;28;20139;-73
2022/05/12 02:53:20;;;;;;;4.70;1.63;;;12.20;99.90;;;;;;5000166;28;20057;-71
2022/05/12 02:55:46;;;;;;;6.05;1.77;;;12.20;99.90;;;;;;5033706;28;20081;-71
2022/05/12 02:58:12;;;;;;;5.10;1.45;;;12.10;99.90;;;;;;5016412;28;20407;-71
2022/05/12 03:00:38;;;;;;;6.82;1.55;;;12.10;99.90;;;;;;5033882;28;20456;-72
2022/05/12 03:03:08;;;;;;;5.35;1.70;;;12.10;99.90;;;;;;5034055;28;20049;-72
2022/05/12 03:05:36;;;;;;;4.97;1.65;;;12.10;99.90;;;;;;5033823;28;20045;-72
2022/05/12 03:08:02;;;;;;;3.65;1.70;;;12.00;99.90;;;;;;5033628;28;20539;-71
2022/05/12 03:10:28;;;;;;;6.78;2.92;;;12.00;99.90;;;;;;5033809;28;20099;-72
2022/05/12 03:12:54;;;;;;;6.15;2.03;;;12.10;99.90;;;;;;5016504;28;20402;-72
2022/05/12 03:15:20;;;;;;;4.47;1.90;;;12.10;99.90;;;;;;5033427;28;20057;-72
2022/05/12 03:17:46;;;;;;;9.48;3.20;;;12.10;99.90;;;;;;5033694;28;20132;-72
2022/05/12 03:20:15;;;;;;;10.73;2.45;;;12.20;99.90;;;;;;5016382;28;20045;-72
2022/05/12 03:22:41;;;;;;;11.52;3.25;;;12.10;99.90;;;;;;5034072;28;20049;-71
2022/05/12 03:25:10;;;;;;;7.10;2.60;;;12.20;99.90;;;;;;5033754;28;20044;-71
2022/05/12 03:27:36;;;;;;;4.05;2.30;;;12.00;99.90;;;;;;5033214;28;20042;-72
2022/05/12 03:30:07;;;;;;;9.00;2.72;;;12.10;99.90;;;;;;5033580;28;20147;-71
2022/05/12 03:32:33;;;;;;;4.30;2.10;;;12.10;99.90;;;;;;5033574;28;20128;-71
2022/05/12 03:34:59;;;;;;;7.93;2.55;;;12.00;99.90;;;;;;5016034;28;20484;-71
2022/05/12 03:37:25;;;;;;;6.90;2.10;;;12.00;99.90;;;;;;5033335;28;20139;-71
2022/05/12 03:39:51;;;;;;;8.13;2.58;;;12.00;99.90;;;;;;5016176;28;20049;-71
2022/05/12 03:42:18;;;;;;;10.98;2.75;;;11.90;99.90;;;;;;5033618;28;20053;-71
2022/05/12 03:44:49;;;;;;;5.45;2.35;;;11.90;99.90;;;;;;5034141;28;20068;-71
2022/05/12 03:47:21;;;;;;;7.15;2.30;;;11.80;99.90;;;;;;5033407;28;20491;-71
2022/05/12 03:49:48;;;;;;;8.32;2.60;;;11.90;99.90;;;;;;5033564;28;20049;-71
2022/05/12 03:52:15;;;;;;;8.65;2.50;;;11.90;99.90;;;;;;5033422;28;20050;-71
2022/05/12 03:54:42;;;;;;;9.32;2.22;;;12.00;99.90;;;;;;5033404;28;20184;-71
2022/05/12 03:57:08;;;;;;;6.75;2.53;;;12.00;99.90;;;;;;5032914;28;20058;-71
2022/05/12 03:59:34;;;;;;;7.70;2.70;;;12.00;99.90;;;;;;5015259;28;20540;-71
2022/05/12 04:02:00;;;;;;;8.55;2.58;;;12.00;99.90;;;;;;5033326;28;20045;-70
2022/05/12 04:04:26;;;;;;;5.00;2.72;;;12.00;99.90;;;;;;5034000;28;20072;-71
2022/05/12 04:06:52;;;;;;;9.50;3.10;;;12.00;99.90;;;;;;5019569;28;20475;-72
2022/05/12 04:09:17;;;;;;;9.57;3.25;;;12.00;99.90;;;;;;5019811;28;20092;-71
2022/05/12 04:11:43;;;;;;;10.50;3.03;;;12.00;99.90;;;;;;5019623;28;20049;-71
2022/05/12 04:14:09;;;;;;;7.47;2.67;;;12.00;99.90;;;;;;5037091;28;20046;-71
2022/05/12 04:16:36;;;;;;;5.18;2.45;;;12.10;99.90;;;;;;5037261;28;20053;-71
2022/05/12 04:19:06;;;;;;;6.40;2.67;;;12.10;99.90;;;;;;5036783;28;20059;-71
2022/05/12 04:21:34;;;;;;;7.25;2.75;;;12.00;99.90;;;;;;5019410;28;20098;-71
2022/05/12 04:24:05;;;;;;;6.25;2.55;;;12.00;99.90;;;;;;5036899;28;20049;-71
2022/05/12 04:26:35;;;;;;;10.55;3.92;;;12.00;99.90;;;;;;5036834;28;20049;-71
2022/05/12 04:29:01;;;;;;;9.02;2.95;;;12.00;99.90;;;;;;5019232;28;20053;-71
2022/05/12 04:31:27;;;;;;;10.55;3.40;;;12.10;99.90;;;;;;5018608;28;20519;-71
2022/05/12 04:36:37;;;;;;;6.55;3.10;;;12.20;99.90;;;;;;5019373;28;20060;-71
2022/05/12 04:39:03;;;;;;;10.32;2.85;;;12.20;99.90;;;;;;5036617;28;20041;-71
2022/05/12 04:41:29;;;;;;;14.15;4.07;;;12.20;99.90;;;;;;5036596;28;20049;-71
2022/05/12 04:43:55;;;;;;;8.25;3.03;;;12.30;99.90;;;;;;5036702;28;20045;-71
2022/05/12 04:46:21;;;;;;;7.03;3.25;;;12.30;99.90;;;;;;5036509;28;20045;-71
2022/05/12 04:48:47;;;;;;;9.00;3.15;;;12.40;99.90;;;;;;5036462;28;20374;-72
2022/05/12 04:51:13;;;;;;;6.43;3.10;;;12.50;99.90;;;;;;5018959;28;20057;-71
2022/05/12 04:53:39;;;;;;;10.57;3.33;;;12.60;99.90;;;;;;5018978;28;20046;-71
2022/05/12 04:56:04;;;;;;;6.95;3.63;;;12.70;99.90;;;;;;5035888;28;20045;-71
2022/05/12 04:58:30;;;;;;;12.20;4.10;;;12.80;99.90;;;;;;5036234;28;20076;-71
2022/05/12 05:00:56;;;;;;;9.55;3.47;;;12.70;99.90;;;;;;5019140;28;20053;-71
2022/05/12 05:03:21;;;;;;;15.43;3.95;;;12.80;99.90;;;;;;5036179;28;20458;-71
2022/05/12 05:05:48;;;;;;;12.00;4.80;;;12.90;99.90;;;;;;5018644;28;20119;-71
2022/05/12 05:08:17;;;;;;;15.00;4.30;;;13.00;99.90;;;;;;5035769;28;20546;-71
2022/05/12 05:10:43;;;;;;;11.25;4.40;;;13.00;99.90;;;;;;5018897;28;20053;-71
2022/05/12 05:13:09;;;;;;;13.93;5.00;;;13.10;99.90;;;;;;5018634;28;20068;-71
2022/05/12 05:15:35;;;;;;;8.93;4.22;;;13.20;99.90;;;;;;5035394;28;20048;-71
2022/05/12 05:18:01;;;;;;;17.13;5.35;;;13.30;99.90;;;;;;5017256;28;20049;-71
2022/05/12 05:20:30;;;;;;;16.33;4.93;;;13.40;99.90;;;;;;5035755;28;20369;-71
2022/05/12 05:22:56;;;;;;;15.43;5.82;;;13.30;99.90;;;;;;5035397;28;20511;-71
2022/05/12 05:25:22;;;;;;;12.60;5.88;;;13.10;99.90;;;;;;5036032;28;20060;-71
2022/05/12 05:27:50;;;;;;;15.55;5.72;;;12.90;99.90;;;;;;5017672;28;20184;-71
2022/05/12 05:30:21;;;;;;;14.00;6.28;;;12.90;99.90;;;;;;5017629;28;20064;-71
2022/05/12 05:32:47;;;;;;;16.85;6.05;;;12.90;99.90;;;;;;5035591;28;20072;-71
2022/05/12 05:35:13;;;;;;;18.70;5.97;;;12.90;99.90;;;;;;5018095;28;20045;-71
2022/05/12 05:37:40;;;;;;;19.55;5.22;;;12.80;99.90;;;;;;5035521;28;20060;-71
2022/05/12 05:40:07;;;;;;;18.00;6.13;;;12.80;99.90;;;;;;5035530;28;20132;-71
2022/05/12 05:42:33;;;;;;;13.23;4.97;;;12.90;99.90;;;;;;5018242;28;20050;-71
2022/05/12 05:44:59;;;;;;;12.52;5.43;;;13.00;99.90;;;;;;5017995;28;20044;-71
2022/05/12 05:47:25;;;;;;;16.52;5.78;;;13.20;99.90;;;;;;5035344;28;20049;-71
2022/05/12 05:49:51;;;;;;;14.35;5.28;;;13.40;99.90;;;;;;5035348;28;20101;-71
2022/05/12 05:55:01;;;;;;;15.20;4.55;;;13.40;99.90;;;;;;5035297;28;20052;-71
2022/05/12 05:57:33;;;;;;;13.18;5.50;;;13.50;99.90;;;;;;5017340;28;20451;-71
2022/05/12 06:00:04;;;;;;;13.73;4.60;;;13.70;99.90;;;;;;5017683;28;20050;-71
2022/05/12 06:02:31;;;;;;;16.52;4.65;;;13.90;99.90;;;;;;5017744;28;20111;-71
2022/05/12 06:04:57;;;;;;;14.70;4.97;;;14.00;99.90;;;;;;5035448;28;20400;-71
2022/05/12 06:07:23;;;;;;;14.98;4.95;;;14.20;99.90;;;;;;5017085;28;20046;-71
2022/05/12 06:09:49;;;;;;;14.07;4.50;;;14.30;99.90;;;;;;5017542;28;20080;-71
2022/05/12 06:12:15;;;;;;;9.43;3.78;;;14.20;99.90;;;;;;5017423;28;20487;-71
2022/05/12 06:14:40;;;;;;;11.98;4.15;;;14.30;99.90;;;;;;5017376;28;20056;-71
2022/05/12 06:17:06;;;;;;;13.55;4.05;;;14.20;99.90;;;;;;5034772;28;20100;-71
2022/05/12 06:19:32;;;;;;;13.35;3.60;;;14.20;99.90;;;;;;5034421;28;20124;-71
2022/05/12 06:21:58;;;;;;;13.73;3.58;;;14.30;99.90;;;;;;5017164;28;20137;-72
2022/05/12 06:24:24;;;;;;;9.18;3.55;;;14.50;99.90;;;;;;5034578;28;20092;-71
2022/05/12 06:26:51;;;;;;;8.60;3.30;;;14.60;99.90;;;;;;5016708;28;20479;-72
2022/05/12 06:29:17;;;;;;;11.07;3.42;;;14.40;99.90;;;;;;5016877;28;20049;-71
2022/05/12 06:31:43;;;;;;;13.23;3.40;;;14.60;99.90;;;;;;5034291;28;20460;-71
2022/05/12 06:34:09;;;;;;;10.05;3.70;;;14.60;99.90;;;;;;5033184;28;20184;-71
2022/05/12 06:36:34;;;;;;;9.13;3.42;;;14.70;99.90;;;;;;5034426;28;20057;-71
2022/05/12 06:39:00;;;;;;;13.70;3.97;;;14.60;99.90;;;;;;5016935;28;20081;-71
2022/05/12 06:41:26;;;;;;;11.98;3.40;;;14.60;99.90;;;;;;5034366;28;20064;-71
2022/05/12 06:43:54;;;;;;;9.07;3.13;;;14.50;99.90;;;;;;5016884;28;20586;-71
2022/05/12 06:46:20;;;;;;;12.98;2.72;;;14.60;99.90;;;;;;5034241;28;20061;-71
2022/05/12 06:48:47;;;;;;;8.52;2.33;;;14.60;99.90;;;;;;5033804;28;20395;-71
2022/05/12 06:51:14;;;;;;;11.93;2.80;;;14.60;99.90;;;;;;5016784;28;20080;-71
2022/05/12 06:53:41;;;;;;;8.45;2.53;;;14.80;99.90;;;;;;5016752;28;20064;-71
2022/05/12 06:56:07;;;;;;;7.35;2.15;;;14.90;99.90;;;;;;5033728;28;20046;-71
2022/05/12 06:58:33;;;;;;;9.27;2.10;;;15.00;99.90;;;;;;5016524;28;20095;-71
2022/05/12 07:01:00;;;;;;;11.30;2.20;;;15.10;99.90;;;;;;5034113;28;20087;-71
2022/05/12 07:03:26;;;;;;;5.47;1.65;;;15.30;99.90;;;;;;5034003;28;20537;-72
2022/05/12 07:05:52;;;;;;;8.43;2.13;;;15.50;99.90;;;;;;5015605;28;20514;-72
2022/05/12 07:08:18;;;;;;;9.43;2.40;;;15.40;99.90;;;;;;5032837;28;20045;-73
2022/05/12 07:10:44;;;;;;;12.73;2.17;;;15.30;99.90;;;;;;5033368;28;20128;-73
2022/05/12 07:13:10;;;;;;;5.25;1.70;;;15.30;99.90;;;;;;5033654;28;20132;-73
2022/05/12 07:15:36;;;;;;;8.13;2.08;;;15.40;99.90;;;;;;5016100;28;20048;-72
2022/05/12 07:18:01;;;;;;;10.77;1.70;;;15.30;99.90;;;;;;5033742;28;20068;-72
2022/05/12 07:28:42;;;;;;;7.22;2.38;;;15.50;99.90;;;;;;5034054;28;20045;-75
2022/05/12 07:31:09;;;;;;;6.80;2.60;;;15.90;99.90;;;;;;5016059;28;20484;-74
2022/05/12 07:33:41;;;;;;;8.45;2.33;;;16.10;99.90;;;;;;5016208;28;20049;-76
2022/05/12 07:36:16;;;;;;;6.63;2.53;;;16.40;99.90;;;;;;5033634;28;20103;-75
2022/05/12 07:38:42;;;;;;;7.93;2.40;;;16.50;99.90;;;;;;5033704;28;20124;-75
2022/05/12 07:41:11;;;;;;;9.25;2.17;;;16.50;99.90;;;;;;5037025;28;20551;-75
2022/05/12 07:43:38;;;;;;;11.07;2.63;;;16.50;99.90;;;;;;5037717;28;20041;-73
2022/05/12 07:46:05;;;;;;;9.30;2.35;;;16.50;99.90;;;;;;5037777;28;20041;-75
2022/05/12 07:48:32;;;;;;;9.27;2.45;;;16.40;99.90;;;;;;5038218;28;20046;-74
2022/05/12 07:50:58;;;;;;;10.07;2.35;;;16.50;99.90;;;;;;5041028;28;20103;-73
2022/05/12 07:53:23;;;;;;;4.80;1.55;;;16.70;99.90;;;;;;5020308;28;20053;-72
2022/05/12 07:55:49;;;;;;;5.28;1.70;;;16.80;99.90;;;;;;5036789;28;20049;-73
2022/05/12 07:58:15;;;;;;;7.53;1.63;;;16.90;99.90;;;;;;5019883;28;20041;-72
2022/05/12 08:00:41;;;;;;;5.15;1.30;;;17.00;99.90;;;;;;5037119;28;20484;-72
2022/05/12 08:03:07;;;;;;;7.00;1.58;;;17.00;99.90;;;;;;5037391;28;20053;-72
2022/05/12 08:05:33;;;;;;;8.13;1.33;;;17.30;99.90;;;;;;5020081;28;20054;-72
2022/05/12 08:07:59;;;;;;;4.95;1.10;;;17.20;99.90;;;;;;5037173;28;20140;-72
2022/05/12 08:10:25;;;;;;;11.07;1.50;;;16.90;99.90;;;;;;5037233;28;20054;-72
2022/05/12 08:12:51;;;;;;;5.68;1.10;;;16.70;99.90;;;;;;5019717;28;20154;-71
2022/05/12 08:15:18;;;;;;;7.30;1.38;;;16.30;99.90;;;;;;5037054;28;20057;-71
2022/05/12 08:17:44;;;;;;;7.03;1.13;;;16.00;99.90;;;;;;5019509;28;20055;-71
2022/05/12 08:20:12;;;;;;;8.88;1.58;;;15.90;99.90;;;;;;5036650;28;20462;-70
2022/05/12 08:22:38;;;;;;;8.85;1.20;;;15.80;99.90;;;;;;5036956;28;20472;-70
2022/05/12 08:25:04;;;;;;;7.57;1.20;;;16.00;99.90;;;;;;5036887;28;20053;-70
2022/05/12 08:27:31;;;;;;;6.13;1.27;;;16.40;99.90;;;;;;5036469;28;20049;-71
2022/05/12 08:29:57;;;;;;;5.07;1.17;;;16.60;99.90;;;;;;5036810;28;20049;-71
2022/05/12 08:32:22;;;;;;;12.82;1.30;;;16.70;99.90;;;;;;5036806;28;20077;-70
2022/05/12 08:34:48;;;;;;;7.53;1.08;;;16.60;99.90;;;;;;5036720;28;20088;-71
2022/05/12 08:37:15;;;;;;;7.28;1.52;;;16.60;99.90;;;;;;5035534;28;20132;-71
2022/05/12 08:39:45;;;;;;;11.40;1.27;;;16.80;99.90;;;;;;5036823;28;20530;-71
2022/05/12 08:42:16;;;;;;;10.35;2.17;;;16.90;99.90;;;;;;5036540;28;20041;-71
2022/05/12 08:44:42;;;;;;;4.68;0.90;;;17.20;99.90;;;;;;5036591;28;20129;-70
2022/05/12 08:47:13;;;;;;;4.78;1.10;;;17.40;99.90;;;;;;5036600;28;20080;-71
2022/05/12 08:49:42;;;;;;;9.57;1.33;;;17.70;99.90;;;;;;5036205;28;20480;-70
2022/05/12 08:52:20;;;;;;;4.85;0.75;;;17.70;99.40;;;;;;5036486;28;20103;-70
2022/05/12 08:55:09;;;;;;;9.65;1.15;;;17.40;99.70;;;;;;5018900;28;20400;-71
2022/05/12 08:57:42;;;;;;;9.38;1.15;;;17.40;99.90;;;;;;5035938;28;20053;-70
2022/05/12 09:00:12;;;;;;;4.57;1.00;;;17.60;99.90;;;;;;5036457;28;20045;-71
2022/05/12 09:03:08;;;;;;;12.07;1.77;;;17.90;99.90;;;;;;5036295;28;20506;-70
2022/05/12 09:05:43;;;;;;;7.82;1.52;;;17.90;99.70;;;;;;5036280;28;20057;-71
2022/05/12 09:08:18;;;;;;;5.68;1.10;;;17.50;99.80;;;;;;5019013;28;20495;-71
2022/05/12 09:11:01;;;;;;;8.32;0.80;;;17.30;99.50;;;;;;5035999;28;20484;-71
2022/05/12 09:13:33;;;;;;;5.32;0.90;;;17.00;99.90;;;;;;5035876;28;20045;-71
2022/05/12 09:16:24;;;;;;;8.15;1.27;;;16.90;99.60;;;;;;5035610;28;20056;-71
2022/05/12 09:18:53;;;;;;;7.63;1.35;;;16.80;99.90;;;;;;5036090;28;20045;-71
2022/05/12 09:21:25;;;;;;;8.43;1.20;;;16.80;99.90;;;;;;5035906;28;20041;-70
2022/05/12 09:23:51;;;;;;;5.22;1.17;;;16.60;99.70;;;;;;5036007;28;20500;-70
2022/05/12 09:26:34;;;;;;;11.60;1.23;;;16.50;99.90;;;;;;5035376;28;20107;-73
2022/05/12 09:29:21;;;;;;;7.85;1.02;;;16.70;99.80;;;;;;5035693;28;20053;-73
2022/05/12 09:31:53;;;;;;;6.70;0.98;;;16.70;99.30;;;;;;5035416;28;20064;-74
2022/05/12 09:34:31;;;;;;;6.30;1.10;;;16.80;99.60;;;;;;5034639;28;20068;-74
2022/05/12 09:37:18;;;;;;;4.57;0.90;;;16.90;99.50;;;;;;5035392;28;20152;-74
2022/05/12 09:39:48;;;;;;;5.85;0.98;;;16.90;99.30;;;;;;5035576;28;20392;-73
2022/05/12 09:42:30;;;;;;;4.05;1.13;;;16.70;99.00;;;;;;5035450;28;20052;-73
2022/05/12 09:45:02;;;;;;;4.72;0.98;;;16.60;99.00;;;;;;5035521;28;20053;-75
2022/05/12 09:47:29;;;;;;;4.43;0.85;;;16.50;99.10;;;;;;5017817;28;20102;-74
2022/05/12 09:50:16;;;;;;;7.82;1.00;;;16.40;99.30;;;;;;5035199;28;20054;-75
2022/05/12 09:52:43;;;;;;;6.88;1.08;;;16.50;99.60;;;;;;5034392;28;20098;-73
2022/05/12 09:55:17;;;;;;;3.63;0.90;;;16.70;99.10;;;;;;5033789;28;20048;-77
2022/05/12 09:57:53;;;;;;;5.20;0.98;;;16.80;98.90;;;;;;5033383;28;20388;-74
2022/05/12 10:00:40;;;;;;;4.93;0.82;;;17.30;99.30;;;;;;5034136;28;20042;-76
2022/05/12 10:09:07;;;;;;;5.47;1.13;;;17.20;98.40;;;;;;5035480;28;20052;-82
2022/05/12 10:11:48;;;;;;;5.20;0.80;;;16.80;98.70;;;;;;5017842;28;20053;-81
2022/05/12 10:14:30;;;;;;;3.97;1.10;;;17.10;98.80;;;;;;5017586;28;20057;-77
2022/05/12 10:16:58;;;;;;;4.57;0.70;;;17.60;98.50;;;;;;5034943;28;20048;-74
2022/05/12 10:19:26;;;;;;;5.07;0.70;;;17.60;97.80;;;;;;5034724;28;20046;-74
2022/05/12 10:22:07;;;;;;;5.18;0.90;;;17.70;98.00;;;;;;5034776;28;20403;-74
2022/05/12 10:24:50;;;;;;;6.82;1.23;;;17.90;98.30;;;;;;5034729;28;20087;-74
2022/05/12 10:27:38;;;;;;;6.95;0.98;;;18.10;98.60;;;;;;5034351;28;20060;-74
2022/05/12 10:30:33;;;;;;;4.43;1.00;;;18.70;97.60;;;;;;5034647;28;20048;-74
2022/05/12 10:33:27;;;;;;;8.43;1.45;;;18.90;97.60;;;;;;5033723;28;20060;-76
2022/05/12 10:36:23;;;;;;;7.18;1.25;;;18.50;97.80;;;;;;5017281;28;20061;-76
2022/05/12 10:39:12;;;;;;;3.05;0.85;;;18.70;97.40;;;;;;5014851;28;20399;-74
2022/05/12 10:41:58;;;;;;;5.05;0.77;;;18.70;97.60;;;;;;5017116;28;20110;-72
2022/05/12 10:44:54;;;;;;;5.18;1.02;;;18.90;98.40;;;;;;5017145;28;20057;-72
2022/05/12 10:47:47;;;;;;;2.92;0.63;;;18.50;97.70;;;;;;5034333;28;20060;-75
2022/05/12 10:50:19;;;;;;;3.08;0.70;;;18.60;97.40;;;;;;5017299;28;20051;-73
2022/05/12 10:52:56;;;;;;;5.00;0.73;;;18.80;98.20;;;;;;5016726;28;20045;-72
2022/05/12 10:55:39;;;;;;;5.28;0.80;;;19.10;97.30;;;;;;5034360;28;20049;-72
2022/05/12 10:58:19;;;;;;;4.63;0.75;;;19.10;96.90;;;;;;5033697;28;20439;-72
2022/05/12 11:01:09;;;;;;;5.90;0.90;;;19.20;97.30;;;;;;5016739;28;20480;-72
2022/05/12 11:03:59;;;;;;;5.13;0.75;;;19.60;97.30;;;;;;5034406;28;20068;-72
2022/05/12 11:06:33;;;;;;;6.53;0.85;;;19.50;96.40;;;;;;5032866;28;20060;-71
2022/05/12 11:09:18;;;;;;;2.92;0.73;;;19.40;96.80;;;;;;5033786;28;20053;-72
2022/05/12 11:11:45;;;;;;;5.57;0.98;;;19.30;96.80;;;;;;5034774;28;20056;-71
2022/05/12 11:14:17;;;;;;;4.75;0.68;;;19.20;96.10;;;;;;5034276;28;20053;-71
2022/05/12 11:17:16;;;;;;;2.13;0.60;;;19.50;96.70;;;;;;5033920;28;20052;-72
2022/05/12 11:19:48;;;;;;;5.15;0.80;;;20.00;96.60;;;;;;5010411;28;20057;-71
2022/05/12 11:22:44;;;;;;;4.00;0.60;;;19.90;96.20;;;;;;5033796;28;20090;-72
2022/05/12 11:25:17;;;;;;;5.35;0.63;;;19.90;96.50;;;;;;5000091;28;20088;-71
2022/05/12 11:31:21;;;;;;;4.55;0.60;;;19.80;96.70;;;;;;5016083;28;20439;-71
2022/05/12 11:33:56;;;;;;;4.50;0.80;;;19.90;96.20;;;;;;5028557;28;20389;-72
2022/05/12 11:36:38;;;;;;;4.68;0.60;;;19.90;96.30;;;;;;5016768;28;20391;-73
2022/05/12 11:39:51;;;;;;;4.18;0.82;;;20.20;96.40;;;;;;5033568;28;20045;-73
2022/05/12 11:42:20;;;;;;;5.18;0.68;;;20.40;96.30;;;;;;5024508;28;20053;-72
2022/05/12 11:44:57;;;;;;;3.15;0.60;;;20.60;95.80;;;;;;5033585;28;20041;-73
2022/05/12 11:47:43;;;;;;;2.63;0.70;;;20.60;95.80;;;;;;5033549;28;20057;-73
2022/05/12 11:50:30;;;;;;;2.40;0.65;;;20.40;95.90;;;;;;5033547;28;20053;-73
2022/05/12 11:53:33;;;;;;;5.07;0.77;;;20.20;96.20;;;;;;5033923;28;20175;-73
2022/05/12 11:56:09;;;;;;;4.78;0.47;;;19.30;95.90;;;;;;5026525;28;20137;-80
2022/05/12 11:58:41;;;;;;;5.20;0.77;;;19.10;96.60;;;;;;5033505;28;20120;-73
2022/05/12 12:01:31;;;;;;;6.75;0.80;;;19.20;96.40;;;;;;5033352;28;20045;-73
2022/05/12 12:03:59;;;;;;;7.15;0.90;;;19.60;96.80;;;;;;5032876;28;20088;-71
2022/05/12 12:06:36;;;;;;;2.75;0.65;;;19.80;96.50;;;;;;5033343;28;20045;-73
2022/05/12 12:09:25;;;;;;;3.53;0.88;;;20.10;96.10;;;;;;5015892;28;20071;-73
2022/05/12 12:11:51;;;;;;;3.78;0.80;;;20.40;96.10;;;;;;5014017;28;20500;-76
2022/05/12 12:14:48;;;;;;;2.33;0.50;;;20.10;95.80;;;;;;5015926;28;20558;-74
2022/05/12 12:17:29;;;;;;;;;;;20.30;96.20;;;;;;5033915;28;20053;-73
2022/05/12 12:19:57;;;;;;;3.67;0.88;;;20.90;96.50;;;;;;5033257;28;19964;-73
2022/05/12 12:22:52;;;;;;;3.70;0.90;;;20.80;96.20;;;;;;5015735;28;20076;-71
2022/05/12 12:25:40;;;;;;;4.78;0.70;;;20.50;95.70;;;;;;5033728;28;20045;-75
2022/05/12 12:28:12;;;;;;;3.75;0.60;;;20.10;95.90;;;;;;5036646;28;20120;-76
2022/05/12 12:31:00;;;;;;;8.02;1.05;;;20.10;96.10;;;;;;5036707;28;20111;-74
2022/05/12 12:33:25;;;;;;;4.30;0.77;;;20.10;96.10;;;;;;5037039;28;20132;-73
2022/05/12 12:36:17;;;;;;;8.00;0.88;;;20.40;96.30;;;;;;5037062;28;20136;-72
2022/05/12 12:38:49;;;;;;;7.20;1.05;;;20.40;96.00;;;;;;5000600;28;20049;-84
2022/05/12 12:41:33;;;;;;;6.75;0.88;;;20.60;95.60;;;;;;5019999;28;20041;-78
2022/05/12 12:44:18;;;;;;;5.00;0.80;;;20.00;95.90;;;;;;5019545;28;20120;-82
2022/05/12 12:47:19;;;;;;;7.07;1.10;;;20.20;96.00;;;;;;5037169;28;20095;-77
2022/05/12 12:49:55;;;;;;;4.00;0.75;;;20.50;95.70;;;;;;5018867;28;20120;-77
2022/05/12 12:52:21;;;;;;;;;;;20.00;95.80;;;;;;5019572;28;20053;-71
2022/05/12 12:57:44;;;;;;;4.60;1.00;;;19.90;96.00;;;;;;5018488;28;20065;-68
2022/05/12 13:00:16;;;;;;;5.60;0.93;;;19.80;95.70;;;;;;5036014;28;20084;-70
2022/05/12 13:02:44;;;;;;;4.38;0.90;;;19.50;96.20;;;;;;5036422;28;20430;-68
2022/05/12 13:05:21;;;;;;;4.70;0.90;;;19.40;96.10;;;;;;5036172;28;20049;-68
2022/05/12 13:08:19;;;;;;;13.32;1.10;;;19.40;96.00;;;;;;5036232;28;20049;-68
2022/05/12 13:10:49;;;;;;;3.85;0.82;;;19.30;96.10;;;;;;5036369;28;20056;-67
2022/05/12 13:13:16;;;;;;;5.25;1.00;;;19.10;95.90;;;;;;5036224;28;20037;-67
2022/05/12 13:15:45;;;;;;;3.10;0.80;;;18.50;95.80;;;;;;5035976;28;20061;-69
2022/05/12 13:18:20;;;;;;;4.93;1.10;;;18.60;95.80;;;;;;5035879;28;20045;-69
2022/05/12 13:20:47;;;;;;;5.32;0.63;;;19.00;96.00;;;;;;5035324;28;20518;-69
2022/05/12 13:23:20;;;;;;;4.03;0.80;;;19.60;95.10;;;;;;5017129;28;20060;-69
2022/05/12 13:25:46;;;;;;;5.47;0.93;;;19.20;95.40;;;;;;5018527;28;20132;-70
2022/05/12 13:28:18;;;;;;;3.72;0.75;;;19.20;95.20;;;;;;5017913;28;20057;-69
2022/05/12 13:30:48;;;;;;;3.85;0.80;;;18.90;95.60;;;;;;5035358;28;20053;-68